sensor_id;sensor_type;location;lat;lon;timestamp;pressure;altitude;pressure_sealevel;temperature;humidity
4745;BME280;2386;42.138;24.746;2023-03-22T00:02:03;99230.03;;;13.28;100.00
4745;BME280;2386;42.138;24.746;2023-03-22T00:04:28;99234.06;;;13.20;100.00
4745;BME280;2386;42.138;24.746;2023-03-22T00:06:53;99225.22;;;13.13;100.00
4745;BME280;2386;42.138;24.746;2023-03-22T00:09:19;99235.25;;;13.07;100.00
4745;BME280;2386;42.138;24.746;2023-03-22T00:11:45;99238.53;;;13.09;100.00
4745;BME280;2386;42.138;24.746;2023-03-22T00:14:10;99241.81;;;13.11;100.00
4745;BME280;2386;42.138;24.746;2023-03-22T00:16:35;99241.22;;;13.04;100.00
4745;BME280;2386;42.138;24.746;2023-03-22T00:19:01;99241.59;;;12.91;100.00
4745;BME280;2386;42.138;24.746;2023-03-22T00:21:26;99231.84;;;12.95;100.00
4745;BME280;2386;42.138;24.746;2023-03-22T00:23:51;99240.41;;;12.82;100.00
4745;BME280;2386;42.138;24.746;2023-03-22T00:26:17;99234.72;;;12.83;100.00
4745;BME280;2386;42.138;24.746;2023-03-22T00:28:42;99229.59;;;12.87;100.00
4745;BME280;2386;42.138;24.746;2023-03-22T00:31:09;99226.03;;;12.87;100.00
4745;BME280;2386;42.138;24.746;2023-03-22T00:33:35;99227.44;;;12.89;100.00
4745;BME280;2386;42.138;24.746;2023-03-22T00:36:06;99227.47;;;12.94;100.00
4745;BME280;2386;42.138;24.746;2023-03-22T00:38:33;99232.56;;;12.86;100.00
4745;BME280;2386;42.138;24.746;2023-03-22T00:41:12;99221.41;;;12.87;100.00
4745;BME280;2386;42.138;24.746;2023-03-22T00:43:38;99224.34;;;12.80;100.00
4745;BME280;2386;42.138;24.746;2023-03-22T00:46:04;99229.97;;;12.74;100.00
4745;BME280;2386;42.138;24.746;2023-03-22T00:48:30;99222.22;;;12.61;100.00
4745;BME280;2386;42.138;24.746;2023-03-22T00:50:55;99221.66;;;12.59;100.00
4745;BME280;2386;42.138;24.746;2023-03-22T00:53:21;99214.44;;;12.47;100.00
4745;BME280;2386;42.138;24.746;2023-03-22T00:55:46;99221.03;;;12.52;100.00
4745;BME280;2386;42.138;24.746;2023-03-22T00:58:11;99218.88;;;12.54;100.00
4745;BME280;2386;42.138;24.746;2023-03-22T01:00:37;99227.44;;;12.67;100.00
4745;BME280;2386;42.138;24.746;2023-03-22T01:03:02;99220.09;;;12.68;100.00
4745;BME280;2386;42.138;24.746;2023-03-22T01:05:32;99212.00;;;12.73;100.00
4745;BME280;2386;42.138;24.746;2023-03-22T01:08:03;99223.50;;;12.80;100.00
4745;BME280;2386;42.138;24.746;2023-03-22T01:10:34;99214.72;;;12.73;100.00
4745;BME280;2386;42.138;24.746;2023-03-22T01:12:59;99199.59;;;12.82;100.00
4745;BME280;2386;42.138;24.746;2023-03-22T01:15:25;99210.34;;;12.72;100.00
4745;BME280;2386;42.138;24.746;2023-03-22T01:17:50;99206.97;;;12.60;100.00
4745;BME280;2386;42.138;24.746;2023-03-22T01:20:16;99211.97;;;12.46;100.00
4745;BME280;2386;42.138;24.746;2023-03-22T01:22:41;99223.03;;;12.39;100.00
4745;BME280;2386;42.138;24.746;2023-03-22T01:25:07;99218.28;;;12.30;100.00
4745;BME280;2386;42.138;24.746;2023-03-22T01:27:33;99217.06;;;12.21;100.00
4745;BME280;2386;42.138;24.746;2023-03-22T01:29:58;99223.41;;;12.26;100.00
4745;BME280;2386;42.138;24.746;2023-03-22T01:32:24;99233.13;;;12.22;100.00
4745;BME280;2386;42.138;24.746;2023-03-22T01:34:49;99231.50;;;12.21;100.00
4745;BME280;2386;42.138;24.746;2023-03-22T01:37:17;99226.00;;;12.38;100.00
4745;BME280;2386;42.138;24.746;2023-03-22T01:39:43;99222.72;;;12.36;100.00
4745;BME280;2386;42.138;24.746;2023-03-22T01:42:13;99212.28;;;12.49;100.00
4745;BME280;2386;42.138;24.746;2023-03-22T01:44:41;99208.88;;;12.37;100.00
4745;BME280;2386;42.138;24.746;2023-03-22T01:47:09;99222.03;;;12.45;100.00
4745;BME280;2386;42.138;24.746;2023-03-22T01:49:36;99215.59;;;12.52;100.00
4745;BME280;2386;42.138;24.746;2023-03-22T01:52:13;99215.59;;;12.52;100.00
4745;BME280;2386;42.138;24.746;2023-03-22T01:54:46;99217.66;;;12.44;100.00
4745;BME280;2386;42.138;24.746;2023-03-22T01:57:12;99211.59;;;12.37;100.00
4745;BME280;2386;42.138;24.746;2023-03-22T01:59:39;99216.34;;;12.47;100.00
4745;BME280;2386;42.138;24.746;2023-03-22T02:02:05;99215.38;;;12.36;100.00
4745;BME280;2386;42.138;24.746;2023-03-22T02:04:35;99229.16;;;12.30;100.00
4745;BME280;2386;42.138;24.746;2023-03-22T02:07:07;99225.88;;;12.28;100.00
4745;BME280;2386;42.138;24.746;2023-03-22T02:09:36;99224.91;;;12.17;100.00
4745;BME280;2386;42.138;24.746;2023-03-22T02:15:13;99232.03;;;12.40;100.00
4745;BME280;2386;42.138;24.746;2023-03-22T02:18:07;99237.81;;;12.27;100.00
4745;BME280;2386;42.138;24.746;2023-03-22T02:20:57;99238.22;;;12.35;100.00
4745;BME280;2386;42.138;24.746;2023-03-22T02:31:45;99245.38;;;12.03;100.00
4745;BME280;2386;42.138;24.746;2023-03-22T02:39:50;99245.19;;;12.09;100.00
4745;BME280;2386;42.138;24.746;2023-03-22T02:42:31;99231.69;;;11.98;100.00
4745;BME280;2386;42.138;24.746;2023-03-22T02:47:56;99234.81;;;12.06;100.00
4745;BME280;2386;42.138;24.746;2023-03-22T02:58:28;99241.09;;;11.90;100.00
4745;BME280;2386;42.138;24.746;2023-03-22T03:00:59;99245.03;;;11.99;100.00
4745;BME280;2386;42.138;24.746;2023-03-22T03:03:27;99251.16;;;11.90;100.00
4745;BME280;2386;42.138;24.746;2023-03-22T03:05:57;99253.31;;;11.88;100.00
4745;BME280;2386;42.138;24.746;2023-03-22T03:08:24;99243.31;;;11.76;100.00
4745;BME280;2386;42.138;24.746;2023-03-22T03:10:51;99255.25;;;11.92;100.00
4745;BME280;2386;42.138;24.746;2023-03-22T03:13:18;99257.41;;;11.73;100.00
4745;BME280;2386;42.138;24.746;2023-03-22T03:15:48;99260.13;;;11.90;100.00
4745;BME280;2386;42.138;24.746;2023-03-22T03:18:34;99261.69;;;12.03;100.00
4745;BME280;2386;42.138;24.746;2023-03-22T03:21:28;99271.91;;;11.96;100.00
4745;BME280;2386;42.138;24.746;2023-03-22T03:32:28;99269.56;;;12.21;100.00
4745;BME280;2386;42.138;24.746;2023-03-22T03:35:19;99268.34;;;12.12;100.00
4745;BME280;2386;42.138;24.746;2023-03-22T03:37:56;99265.78;;;12.22;100.00
4745;BME280;2386;42.138;24.746;2023-03-22T03:40:27;99272.72;;;12.13;100.00
4745;BME280;2386;42.138;24.746;2023-03-22T03:42:55;99276.38;;;11.85;100.00
4745;BME280;2386;42.138;24.746;2023-03-22T03:45:22;99283.91;;;12.00;100.00
4745;BME280;2386;42.138;24.746;2023-03-22T03:47:51;99274.53;;;11.91;100.00
4745;BME280;2386;42.138;24.746;2023-03-22T03:50:21;99274.72;;;11.84;100.00
4745;BME280;2386;42.138;24.746;2023-03-22T03:52:47;99270.38;;;11.83;100.00
4745;BME280;2386;42.138;24.746;2023-03-22T03:55:14;99266.97;;;11.76;100.00
4745;BME280;2386;42.138;24.746;2023-03-22T03:57:39;99279.84;;;11.80;100.00
4745;BME280;2386;42.138;24.746;2023-03-22T04:00:06;99278.31;;;11.73;100.00
4745;BME280;2386;42.138;24.746;2023-03-22T04:02:31;99266.97;;;11.76;100.00
4745;BME280;2386;42.138;24.746;2023-03-22T04:04:57;99282.94;;;11.72;100.00
4745;BME280;2386;42.138;24.746;2023-03-22T04:07:22;99280.41;;;11.82;100.00
4745;BME280;2386;42.138;24.746;2023-03-22T04:09:48;99278.31;;;11.90;100.00
4745;BME280;2386;42.138;24.746;2023-03-22T04:12:13;99290.22;;;11.83;100.00
4745;BME280;2386;42.138;24.746;2023-03-22T04:14:39;99282.09;;;11.89;100.00
4745;BME280;2386;42.138;24.746;2023-03-22T04:17:05;99292.94;;;11.83;100.00
4745;BME280;2386;42.138;24.746;2023-03-22T04:19:31;99290.38;;;11.77;100.00
4745;BME280;2386;42.138;24.746;2023-03-22T04:21:56;99285.34;;;11.86;100.00
4745;BME280;2386;42.138;24.746;2023-03-22T04:24:22;99298.75;;;11.75;100.00
4745;BME280;2386;42.138;24.746;2023-03-22T04:26:47;99290.53;;;11.42;100.00
4745;BME280;2386;42.138;24.746;2023-03-22T04:29:13;99303.50;;;11.68;100.00
4745;BME280;2386;42.138;24.746;2023-03-22T04:31:39;99303.81;;;11.55;100.00
4745;BME280;2386;42.138;24.746;2023-03-22T04:34:05;99304.31;;;11.52;100.00
4745;BME280;2386;42.138;24.746;2023-03-22T04:36:36;99309.19;;;11.67;100.00
4745;BME280;2386;42.138;24.746;2023-03-22T04:39:08;99302.41;;;11.52;100.00
4745;BME280;2386;42.138;24.746;2023-03-22T04:41:35;99313.22;;;11.64;100.00
4745;BME280;2386;42.138;24.746;2023-03-22T04:44:01;99309.44;;;11.65;100.00
4745;BME280;2386;42.138;24.746;2023-03-22T04:46:31;99304.41;;;11.57;100.00
4745;BME280;2386;42.138;24.746;2023-03-22T04:48:57;99303.25;;;11.53;100.00
4745;BME280;2386;42.138;24.746;2023-03-22T04:51:23;99319.81;;;11.68;100.00
4745;BME280;2386;42.138;24.746;2023-03-22T04:53:49;99313.88;;;11.55;100.00
4745;BME280;2386;42.138;24.746;2023-03-22T04:56:15;99314.50;;;11.45;100.00
4745;BME280;2386;42.138;24.746;2023-03-22T04:58:42;99309.59;;;11.30;100.00
4745;BME280;2386;42.138;24.746;2023-03-22T05:01:09;99312.19;;;11.37;100.00
4745;BME280;2386;42.138;24.746;2023-03-22T05:03:35;99310.63;;;11.41;100.00
4745;BME280;2386;42.138;24.746;2023-03-22T05:06:03;99318.97;;;11.51;100.00
4745;BME280;2386;42.138;24.746;2023-03-22T05:08:29;99314.59;;;11.50;100.00
4745;BME280;2386;42.138;24.746;2023-03-22T05:10:56;99315.81;;;11.42;100.00
4745;BME280;2386;42.138;24.746;2023-03-22T05:13:24;99321.09;;;11.49;100.00
4745;BME280;2386;42.138;24.746;2023-03-22T05:15:50;99319.38;;;11.60;100.00
4745;BME280;2386;42.138;24.746;2023-03-22T05:18:17;99326.56;;;11.37;100.00
4745;BME280;2386;42.138;24.746;2023-03-22T05:20:45;99339.03;;;11.50;100.00
4745;BME280;2386;42.138;24.746;2023-03-22T05:23:11;99333.22;;;11.58;100.00
4745;BME280;2386;42.138;24.746;2023-03-22T05:25:37;99340.53;;;11.86;100.00
4745;BME280;2386;42.138;24.746;2023-03-22T05:28:04;99344.38;;;11.90;100.00
4745;BME280;2386;42.138;24.746;2023-03-22T05:30:30;99351.31;;;11.81;100.00
4745;BME280;2386;42.138;24.746;2023-03-22T05:32:57;99357.72;;;11.92;100.00
4745;BME280;2386;42.138;24.746;2023-03-22T05:35:24;99364.81;;;11.93;100.00
4745;BME280;2386;42.138;24.746;2023-03-22T05:37:50;99369.50;;;11.97;100.00
4745;BME280;2386;42.138;24.746;2023-03-22T05:40:16;99367.13;;;12.01;100.00
4745;BME280;2386;42.138;24.746;2023-03-22T05:42:41;99366.13;;;12.07;100.00
4745;BME280;2386;42.138;24.746;2023-03-22T05:45:07;99362.50;;;12.01;100.00
4745;BME280;2386;42.138;24.746;2023-03-22T05:47:33;99363.34;;;11.85;100.00
4745;BME280;2386;42.138;24.746;2023-03-22T05:49:59;99368.75;;;12.02;100.00
4745;BME280;2386;42.138;24.746;2023-03-22T05:52:24;99376.44;;;12.05;100.00
4745;BME280;2386;42.138;24.746;2023-03-22T05:54:50;99382.63;;;12.17;100.00
4745;BME280;2386;42.138;24.746;2023-03-22T05:57:15;99381.63;;;12.23;100.00
4745;BME280;2386;42.138;24.746;2023-03-22T05:59:41;99385.59;;;12.32;100.00
4745;BME280;2386;42.138;24.746;2023-03-22T06:02:07;99393.16;;;12.30;100.00
4745;BME280;2386;42.138;24.746;2023-03-22T06:04:32;99394.56;;;12.33;100.00
4745;BME280;2386;42.138;24.746;2023-03-22T06:06:57;99400.16;;;12.43;100.00
4745;BME280;2386;42.138;24.746;2023-03-22T06:09:23;99397.44;;;12.43;100.00
4745;BME280;2386;42.138;24.746;2023-03-22T06:11:48;99412.22;;;12.47;100.00
4745;BME280;2386;42.138;24.746;2023-03-22T06:14:13;99407.66;;;12.36;100.00
4745;BME280;2386;42.138;24.746;2023-03-22T06:16:39;99402.88;;;12.26;100.00
4745;BME280;2386;42.138;24.746;2023-03-22T06:19:05;99399.91;;;12.11;100.00
4745;BME280;2386;42.138;24.746;2023-03-22T06:21:31;99400.97;;;12.10;100.00
4745;BME280;2386;42.138;24.746;2023-03-22T06:23:56;99413.19;;;12.24;100.00
4745;BME280;2386;42.138;24.746;2023-03-22T06:26:21;99415.34;;;12.22;100.00
4745;BME280;2386;42.138;24.746;2023-03-22T06:28:47;99414.75;;;12.20;100.00
4745;BME280;2386;42.138;24.746;2023-03-22T06:31:12;99421.44;;;12.29;100.00
4745;BME280;2386;42.138;24.746;2023-03-22T06:33:37;99427.44;;;12.31;100.00
4745;BME280;2386;42.138;24.746;2023-03-22T06:36:03;99425.28;;;12.00;100.00
4745;BME280;2386;42.138;24.746;2023-03-22T06:38:29;99430.72;;;12.00;100.00
4745;BME280;2386;42.138;24.746;2023-03-22T06:40:54;99438.56;;;12.13;100.00
4745;BME280;2386;42.138;24.746;2023-03-22T06:43:20;99442.84;;;12.09;100.00
4745;BME280;2386;42.138;24.746;2023-03-22T06:45:47;99443.22;;;12.01;100.00
4745;BME280;2386;42.138;24.746;2023-03-22T06:48:13;99444.31;;;12.00;100.00
4745;BME280;2386;42.138;24.746;2023-03-22T06:50:39;99442.31;;;11.95;100.00
4745;BME280;2386;42.138;24.746;2023-03-22T06:53:06;99439.19;;;11.87;100.00
4745;BME280;2386;42.138;24.746;2023-03-22T06:55:31;99441.22;;;11.79;100.00
4745;BME280;2386;42.138;24.746;2023-03-22T06:58:00;99432.41;;;11.89;100.00
4745;BME280;2386;42.138;24.746;2023-03-22T07:00:27;99437.88;;;12.06;100.00
4745;BME280;2386;42.138;24.746;2023-03-22T07:02:52;99437.63;;;12.07;100.00
4745;BME280;2386;42.138;24.746;2023-03-22T07:05:18;99444.56;;;12.15;100.00
4745;BME280;2386;42.138;24.746;2023-03-22T07:07:44;99443.25;;;12.17;100.00
4745;BME280;2386;42.138;24.746;2023-03-22T07:10:10;99444.75;;;12.25;100.00
4745;BME280;2386;42.138;24.746;2023-03-22T07:12:36;99444.09;;;12.35;100.00
4745;BME280;2386;42.138;24.746;2023-03-22T07:15:02;99434.38;;;12.39;100.00
4745;BME280;2386;42.138;24.746;2023-03-22T07:17:27;99424.25;;;12.34;100.00
4745;BME280;2386;42.138;24.746;2023-03-22T07:19:53;99419.47;;;12.41;100.00
4745;BME280;2386;42.138;24.746;2023-03-22T07:22:18;99411.97;;;12.48;100.00
4745;BME280;2386;42.138;24.746;2023-03-22T07:24:49;99401.22;;;12.59;100.00
4745;BME280;2386;42.138;24.746;2023-03-22T07:27:15;99401.22;;;12.59;100.00
4745;BME280;2386;42.138;24.746;2023-03-22T07:29:41;99408.16;;;12.49;100.00
4745;BME280;2386;42.138;24.746;2023-03-22T07:32:07;99402.88;;;12.60;100.00
4745;BME280;2386;42.138;24.746;2023-03-22T07:34:32;99415.53;;;12.71;100.00
4745;BME280;2386;42.138;24.746;2023-03-22T07:36:57;99424.44;;;12.83;100.00
4745;BME280;2386;42.138;24.746;2023-03-22T07:39:23;99425.44;;;12.77;100.00
4745;BME280;2386;42.138;24.746;2023-03-22T07:41:53;99436.09;;;13.00;100.00
4745;BME280;2386;42.138;24.746;2023-03-22T07:44:19;99447.75;;;12.96;100.00
4745;BME280;2386;42.138;24.746;2023-03-22T07:46:45;99462.66;;;13.10;100.00
4745;BME280;2386;42.138;24.746;2023-03-22T07:49:10;99471.56;;;13.05;100.00
4745;BME280;2386;42.138;24.746;2023-03-22T07:51:35;99475.47;;;12.93;100.00
4745;BME280;2386;42.138;24.746;2023-03-22T08:01:42;99474.56;;;13.04;100.00
4745;BME280;2386;42.138;24.746;2023-03-22T08:04:08;99470.06;;;13.14;100.00
4745;BME280;2386;42.138;24.746;2023-03-22T08:06:34;99466.72;;;13.07;100.00
4745;BME280;2386;42.138;24.746;2023-03-22T08:09:02;99473.56;;;13.10;100.00
4745;BME280;2386;42.138;24.746;2023-03-22T08:11:28;99471.72;;;13.15;100.00
4745;BME280;2386;42.138;24.746;2023-03-22T08:13:54;99476.28;;;13.27;100.00
4745;BME280;2386;42.138;24.746;2023-03-22T08:16:19;99475.13;;;13.23;100.00
4745;BME280;2386;42.138;24.746;2023-03-22T08:18:45;99484.94;;;13.24;100.00
4745;BME280;2386;42.138;24.746;2023-03-22T08:21:10;99491.41;;;13.18;100.00
4745;BME280;2386;42.138;24.746;2023-03-22T08:23:36;99490.06;;;13.03;100.00
4745;BME280;2386;42.138;24.746;2023-03-22T08:26:01;99496.84;;;13.01;100.00
4745;BME280;2386;42.138;24.746;2023-03-22T08:28:26;99496.00;;;13.00;100.00
4745;BME280;2386;42.138;24.746;2023-03-22T08:30:52;99499.97;;;12.93;100.00
4745;BME280;2386;42.138;24.746;2023-03-22T08:33:17;99494.69;;;12.86;100.00
4745;BME280;2386;42.138;24.746;2023-03-22T08:35:46;99505.75;;;12.79;100.00
4745;BME280;2386;42.138;24.746;2023-03-22T08:38:11;99503.44;;;12.88;100.00
4745;BME280;2386;42.138;24.746;2023-03-22T08:40:36;99504.94;;;12.79;100.00
4745;BME280;2386;42.138;24.746;2023-03-22T08:43:02;99498.25;;;12.70;100.00
4745;BME280;2386;42.138;24.746;2023-03-22T08:45:28;99497.34;;;12.81;100.00
4745;BME280;2386;42.138;24.746;2023-03-22T08:47:53;99499.97;;;12.76;100.00
4745;BME280;2386;42.138;24.746;2023-03-22T08:50:19;99498.00;;;12.71;100.00
4745;BME280;2386;42.138;24.746;2023-03-22T08:52:44;99488.09;;;12.65;100.00
4745;BME280;2386;42.138;24.746;2023-03-22T08:55:09;99495.63;;;12.41;100.00
4745;BME280;2386;42.138;24.746;2023-03-22T08:57:35;99501.41;;;12.45;100.00
4745;BME280;2386;42.138;24.746;2023-03-22T09:00:01;99493.31;;;12.50;100.00
4745;BME280;2386;42.138;24.746;2023-03-22T09:02:30;99499.34;;;12.52;100.00
4745;BME280;2386;42.138;24.746;2023-03-22T09:04:58;99488.38;;;12.47;100.00
4745;BME280;2386;42.138;24.746;2023-03-22T09:07:24;99492.25;;;12.34;100.00
4745;BME280;2386;42.138;24.746;2023-03-22T09:09:49;99477.38;;;12.25;100.00
4745;BME280;2386;42.138;24.746;2023-03-22T09:12:15;99479.63;;;12.45;100.00
4745;BME280;2386;42.138;24.746;2023-03-22T09:14:42;99486.78;;;12.68;100.00
4745;BME280;2386;42.138;24.746;2023-03-22T09:17:07;99490.53;;;12.62;100.00
4745;BME280;2386;42.138;24.746;2023-03-22T09:19:33;99496.53;;;12.80;100.00
4745;BME280;2386;42.138;24.746;2023-03-22T09:21:58;99497.22;;;13.09;100.00
4745;BME280;2386;42.138;24.746;2023-03-22T09:24:24;99506.41;;;13.20;100.00
4745;BME280;2386;42.138;24.746;2023-03-22T09:26:49;99497.63;;;13.35;100.00
4745;BME280;2386;42.138;24.746;2023-03-22T09:29:15;99507.00;;;13.44;100.00
4745;BME280;2386;42.138;24.746;2023-03-22T09:31:41;99506.44;;;13.64;100.00
4745;BME280;2386;42.138;24.746;2023-03-22T09:34:07;99499.78;;;13.76;100.00
4745;BME280;2386;42.138;24.746;2023-03-22T09:36:33;99496.34;;;13.64;100.00
4745;BME280;2386;42.138;24.746;2023-03-22T09:38:58;99505.47;;;13.14;100.00
4745;BME280;2386;42.138;24.746;2023-03-22T09:44:32;99486.66;;;13.52;100.00
4745;BME280;2386;42.138;24.746;2023-03-22T09:47:00;99478.03;;;13.60;100.00
4745;BME280;2386;42.138;24.746;2023-03-22T09:49:33;99475.31;;;13.60;100.00
4745;BME280;2386;42.138;24.746;2023-03-22T09:52:01;99464.56;;;13.97;100.00
4745;BME280;2386;42.138;24.746;2023-03-22T09:54:34;99471.28;;;13.89;100.00
4745;BME280;2386;42.138;24.746;2023-03-22T09:57:05;99467.69;;;13.84;100.00
4745;BME280;2386;42.138;24.746;2023-03-22T10:10:31;99482.22;;;14.43;100.00
4745;BME280;2386;42.138;24.746;2023-03-22T10:15:37;99472.72;;;14.51;100.00
4745;BME280;2386;42.138;24.746;2023-03-22T10:18:10;99480.22;;;14.65;100.00
4745;BME280;2386;42.138;24.746;2023-03-22T10:20:52;99472.97;;;14.86;100.00
4745;BME280;2386;42.138;24.746;2023-03-22T10:23:29;99477.50;;;15.07;100.00
4745;BME280;2386;42.138;24.746;2023-03-22T10:25:57;99486.31;;;15.20;100.00
4745;BME280;2386;42.138;24.746;2023-03-22T10:28:40;99479.50;;;15.22;100.00
4745;BME280;2386;42.138;24.746;2023-03-22T10:31:13;99475.38;;;15.20;100.00
4745;BME280;2386;42.138;24.746;2023-03-22T10:33:43;99476.22;;;15.20;100.00
4745;BME280;2386;42.138;24.746;2023-03-22T10:36:16;99476.53;;;15.29;100.00
4745;BME280;2386;42.138;24.746;2023-03-22T10:38:46;99465.00;;;15.17;100.00
4745;BME280;2386;42.138;24.746;2023-03-22T10:41:15;99465.53;;;15.19;100.00
4745;BME280;2386;42.138;24.746;2023-03-22T10:43:43;99464.69;;;15.13;100.00
4745;BME280;2386;42.138;24.746;2023-03-22T10:46:33;99467.03;;;14.94;100.00
4745;BME280;2386;42.138;24.746;2023-03-22T10:49:01;99450.81;;;15.25;100.00
4745;BME280;2386;42.138;24.746;2023-03-22T10:51:34;99456.41;;;15.50;100.00
4745;BME280;2386;42.138;24.746;2023-03-22T10:54:03;99458.22;;;15.29;100.00
4745;BME280;2386;42.138;24.746;2023-03-22T10:56:30;99457.97;;;15.31;100.00
4745;BME280;2386;42.138;24.746;2023-03-22T10:58:56;99452.41;;;15.16;100.00
4745;BME280;2386;42.138;24.746;2023-03-22T11:01:29;99454.59;;;15.13;100.00
4745;BME280;2386;42.138;24.746;2023-03-22T11:04:16;99452.94;;;15.12;99.98
4745;BME280;2386;42.138;24.746;2023-03-22T11:06:52;99446.25;;;15.40;99.40
4745;BME280;2386;42.138;24.746;2023-03-22T11:12:27;99430.06;;;15.29;96.75
4745;BME280;2386;42.138;24.746;2023-03-22T11:14:55;99438.97;;;15.04;97.19
4745;BME280;2386;42.138;24.746;2023-03-22T11:17:22;99437.69;;;15.22;98.85
4745;BME280;2386;42.138;24.746;2023-03-22T11:19:55;99438.84;;;15.31;96.46
4745;BME280;2386;42.138;24.746;2023-03-22T11:24:56;99432.16;;;15.69;92.18
4745;BME280;2386;42.138;24.746;2023-03-22T11:27:26;99443.09;;;15.59;89.24
4745;BME280;2386;42.138;24.746;2023-03-22T11:29:56;99438.16;;;15.66;89.51
4745;BME280;2386;42.138;24.746;2023-03-22T11:32:35;99435.19;;;15.83;88.98
4745;BME280;2386;42.138;24.746;2023-03-22T11:35:24;99434.09;;;15.73;87.48
4745;BME280;2386;42.138;24.746;2023-03-22T11:37:53;99428.53;;;15.53;87.05
4745;BME280;2386;42.138;24.746;2023-03-22T11:40:27;99435.16;;;15.67;84.34
4745;BME280;2386;42.138;24.746;2023-03-22T11:43:23;99424.53;;;15.86;84.67
4745;BME280;2386;42.138;24.746;2023-03-22T11:45:52;99422.63;;;15.82;84.10
4745;BME280;2386;42.138;24.746;2023-03-22T11:48:27;99414.72;;;15.95;83.57
4745;BME280;2386;42.138;24.746;2023-03-22T11:50:57;99427.88;;;16.03;80.42
4745;BME280;2386;42.138;24.746;2023-03-22T11:53:25;99419.34;;;15.80;80.51
4745;BME280;2386;42.138;24.746;2023-03-22T11:55:53;99409.97;;;15.55;82.42
4745;BME280;2386;42.138;24.746;2023-03-22T11:58:41;99424.16;;;15.52;82.95
4745;BME280;2386;42.138;24.746;2023-03-22T12:01:48;99414.97;;;15.84;81.50
4745;BME280;2386;42.138;24.746;2023-03-22T12:04:18;99411.38;;;15.68;81.95
4745;BME280;2386;42.138;24.746;2023-03-22T12:06:47;99423.66;;;15.65;80.25
4745;BME280;2386;42.138;24.746;2023-03-22T12:09:37;99402.91;;;15.59;81.26
4745;BME280;2386;42.138;24.746;2023-03-22T12:12:04;99422.56;;;15.66;80.03
4745;BME280;2386;42.138;24.746;2023-03-22T12:14:42;99416.56;;;15.69;79.82
4745;BME280;2386;42.138;24.746;2023-03-22T12:22:27;99417.69;;;15.78;76.91
4745;BME280;2386;42.138;24.746;2023-03-22T12:24:54;99408.66;;;15.73;77.65
4745;BME280;2386;42.138;24.746;2023-03-22T12:29:53;99409.44;;;15.63;79.27
4745;BME280;2386;42.138;24.746;2023-03-22T12:32:24;99400.97;;;15.65;80.91
4745;BME280;2386;42.138;24.746;2023-03-22T12:34:51;99424.28;;;15.93;79.37
4745;BME280;2386;42.138;24.746;2023-03-22T12:37:21;99405.69;;;15.90;80.04
4745;BME280;2386;42.138;24.746;2023-03-22T12:39:52;99409.00;;;16.17;77.72
4745;BME280;2386;42.138;24.746;2023-03-22T12:42:24;99427.59;;;16.05;76.19
4745;BME280;2386;42.138;24.746;2023-03-22T12:44:57;99410.06;;;16.01;76.60
4745;BME280;2386;42.138;24.746;2023-03-22T12:47:29;99418.28;;;16.06;77.67
4745;BME280;2386;42.138;24.746;2023-03-22T12:50:12;99410.34;;;15.94;77.12
4745;BME280;2386;42.138;24.746;2023-03-22T12:53:05;99425.44;;;16.17;76.73
4745;BME280;2386;42.138;24.746;2023-03-22T12:55:37;99414.47;;;16.22;74.14
4745;BME280;2386;42.138;24.746;2023-03-22T12:58:08;99422.66;;;16.63;73.02
4745;BME280;2386;42.138;24.746;2023-03-22T13:00:56;99416.63;;;16.91;72.56
4745;BME280;2386;42.138;24.746;2023-03-22T13:03:27;99420.25;;;17.51;68.23
4745;BME280;2386;42.138;24.746;2023-03-22T13:06:05;99421.50;;;19.15;58.12
4745;BME280;2386;42.138;24.746;2023-03-22T13:11:26;99423.56;;;20.92;46.50
4745;BME280;2386;42.138;24.746;2023-03-22T13:13:51;99415.75;;;21.27;46.03
4745;BME280;2386;42.138;24.746;2023-03-22T13:16:19;99408.81;;;21.93;45.52
4745;BME280;2386;42.138;24.746;2023-03-22T13:21:20;99405.84;;;22.03;43.89
4745;BME280;2386;42.138;24.746;2023-03-22T13:26:49;99414.63;;;24.08;40.37
4745;BME280;2386;42.138;24.746;2023-03-22T13:31:57;99418.50;;;23.64;42.22
4745;BME280;2386;42.138;24.746;2023-03-22T13:34:47;99418.28;;;21.10;45.23
4745;BME280;2386;42.138;24.746;2023-03-22T13:37:31;99405.31;;;20.13;48.67
4745;BME280;2386;42.138;24.746;2023-03-22T13:40:31;99415.59;;;19.27;50.97
4745;BME280;2386;42.138;24.746;2023-03-22T13:54:02;99411.56;;;17.34;58.08
4745;BME280;2386;42.138;24.746;2023-03-22T13:59:01;99416.53;;;17.17;58.61
4745;BME280;2386;42.138;24.746;2023-03-22T14:01:36;99400.63;;;17.24;57.64
4745;BME280;2386;42.138;24.746;2023-03-22T14:04:08;99405.53;;;17.27;58.11
4745;BME280;2386;42.138;24.746;2023-03-22T14:06:42;99409.91;;;17.33;62.18
4745;BME280;2386;42.138;24.746;2023-03-22T14:10:06;99410.88;;;16.93;60.23
4745;BME280;2386;42.138;24.746;2023-03-22T14:13:01;99416.59;;;17.06;60.63
4745;BME280;2386;42.138;24.746;2023-03-22T14:15:32;99410.31;;;16.96;61.25
4745;BME280;2386;42.138;24.746;2023-03-22T14:18:26;99414.47;;;16.83;61.77
4745;BME280;2386;42.138;24.746;2023-03-22T14:21:04;99413.34;;;16.89;63.17
4745;BME280;2386;42.138;24.746;2023-03-22T14:23:35;99408.41;;;16.91;64.72
4745;BME280;2386;42.138;24.746;2023-03-22T14:26:28;99413.06;;;16.91;64.77
4745;BME280;2386;42.138;24.746;2023-03-22T14:31:36;99403.78;;;16.71;71.47
4745;BME280;2386;42.138;24.746;2023-03-22T14:34:13;99415.53;;;16.62;74.49
4745;BME280;2386;42.138;24.746;2023-03-22T14:36:42;99414.47;;;16.48;74.75
4745;BME280;2386;42.138;24.746;2023-03-22T14:39:13;99418.03;;;16.33;74.08
4745;BME280;2386;42.138;24.746;2023-03-22T14:44:35;99414.47;;;16.02;76.23
4745;BME280;2386;42.138;24.746;2023-03-22T14:47:09;99423.22;;;16.04;78.22
4745;BME280;2386;42.138;24.746;2023-03-22T14:49:39;99422.69;;;16.12;79.02
4745;BME280;2386;42.138;24.746;2023-03-22T14:52:05;99418.84;;;16.08;79.90
4745;BME280;2386;42.138;24.746;2023-03-22T14:54:31;99415.28;;;15.97;80.95
4745;BME280;2386;42.138;24.746;2023-03-22T14:56:59;99425.38;;;15.97;81.78
4745;BME280;2386;42.138;24.746;2023-03-22T14:59:26;99413.31;;;15.83;84.01